sensor_id;sensor_type;location;lat;lon;timestamp;temperature;humidity
17346;DHT22;8790;53.590;10.002;2022-09-17T00:02:10;13.00;99.90
17346;DHT22;8790;53.590;10.002;2022-09-17T00:04:46;13.00;99.90
17346;DHT22;8790;53.590;10.002;2022-09-17T00:07:18;13.00;99.90
17346;DHT22;8790;53.590;10.002;2022-09-17T00:09:50;13.00;99.90
17346;DHT22;8790;53.590;10.002;2022-09-17T00:12:22;13.00;99.90
17346;DHT22;8790;53.590;10.002;2022-09-17T00:14:54;13.00;99.90
17346;DHT22;8790;53.590;10.002;2022-09-17T00:17:25;13.00;99.90
17346;DHT22;8790;53.590;10.002;2022-09-17T00:19:58;12.90;99.90
17346;DHT22;8790;53.590;10.002;2022-09-17T00:22:30;12.90;99.90
17346;DHT22;8790;53.590;10.002;2022-09-17T00:25:02;13.00;99.90
17346;DHT22;8790;53.590;10.002;2022-09-17T00:27:34;13.00;99.90
17346;DHT22;8790;53.590;10.002;2022-09-17T00:30:07;12.90;99.90
17346;DHT22;8790;53.590;10.002;2022-09-17T00:32:39;12.90;99.90
17346;DHT22;8790;53.590;10.002;2022-09-17T00:35:12;12.90;99.90
17346;DHT22;8790;53.590;10.002;2022-09-17T00:37:44;12.90;99.90
17346;DHT22;8790;53.590;10.002;2022-09-17T00:40:15;12.90;99.90
17346;DHT22;8790;53.590;10.002;2022-09-17T00:42:47;13.00;99.90
17346;DHT22;8790;53.590;10.002;2022-09-17T00:45:19;13.00;99.90
17346;DHT22;8790;53.590;10.002;2022-09-17T00:47:56;13.00;99.90
17346;DHT22;8790;53.590;10.002;2022-09-17T00:50:32;13.00;99.90
17346;DHT22;8790;53.590;10.002;2022-09-17T00:53:08;12.90;99.90
17346;DHT22;8790;53.590;10.002;2022-09-17T00:55:42;12.90;99.90
17346;DHT22;8790;53.590;10.002;2022-09-17T00:58:17;12.90;99.90
17346;DHT22;8790;53.590;10.002;2022-09-17T01:00:52;12.80;99.90
17346;DHT22;8790;53.590;10.002;2022-09-17T01:03:23;12.80;99.90
17346;DHT22;8790;53.590;10.002;2022-09-17T01:06:06;12.90;99.90
17346;DHT22;8790;53.590;10.002;2022-09-17T01:08:49;12.80;99.90
17346;DHT22;8790;53.590;10.002;2022-09-17T01:11:40;12.80;99.90
17346;DHT22;8790;53.590;10.002;2022-09-17T01:14:24;12.90;99.90
17346;DHT22;8790;53.590;10.002;2022-09-17T01:17:02;12.80;99.90
17346;DHT22;8790;53.590;10.002;2022-09-17T01:23:28;12.80;99.90
17346;DHT22;8790;53.590;10.002;2022-09-17T01:26:17;12.80;99.90
17346;DHT22;8790;53.590;10.002;2022-09-17T01:28:57;12.80;99.90
17346;DHT22;8790;53.590;10.002;2022-09-17T01:31:36;12.80;99.90
17346;DHT22;8790;53.590;10.002;2022-09-17T01:34:17;12.80;99.90
17346;DHT22;8790;53.590;10.002;2022-09-17T01:36:58;12.70;99.90
17346;DHT22;8790;53.590;10.002;2022-09-17T01:39:40;12.80;99.90
17346;DHT22;8790;53.590;10.002;2022-09-17T01:42:17;12.70;99.90
17346;DHT22;8790;53.590;10.002;2022-09-17T01:44:54;12.70;99.90
17346;DHT22;8790;53.590;10.002;2022-09-17T01:47:32;12.70;99.90
17346;DHT22;8790;53.590;10.002;2022-09-17T01:50:08;12.70;99.90
17346;DHT22;8790;53.590;10.002;2022-09-17T01:52:43;12.70;99.90
17346;DHT22;8790;53.590;10.002;2022-09-17T01:55:17;12.70;99.90
17346;DHT22;8790;53.590;10.002;2022-09-17T01:57:52;12.70;99.90
17346;DHT22;8790;53.590;10.002;2022-09-17T02:00:25;12.70;99.90
17346;DHT22;8790;53.590;10.002;2022-09-17T02:03:03;12.70;99.90
17346;DHT22;8790;53.590;10.002;2022-09-17T02:05:39;12.60;99.90
17346;DHT22;8790;53.590;10.002;2022-09-17T02:08:14;12.60;99.90
17346;DHT22;8790;53.590;10.002;2022-09-17T02:10:49;12.60;99.90
17346;DHT22;8790;53.590;10.002;2022-09-17T02:13:25;12.60;99.90
17346;DHT22;8790;53.590;10.002;2022-09-17T02:16:03;12.60;99.90
17346;DHT22;8790;53.590;10.002;2022-09-17T02:18:41;12.60;99.90
17346;DHT22;8790;53.590;10.002;2022-09-17T02:21:17;12.60;99.90
17346;DHT22;8790;53.590;10.002;2022-09-17T02:23:59;12.50;99.90
17346;DHT22;8790;53.590;10.002;2022-09-17T02:26:34;12.50;99.90
17346;DHT22;8790;53.590;10.002;2022-09-17T02:29:15;12.50;99.90
17346;DHT22;8790;53.590;10.002;2022-09-17T02:31:49;12.50;99.90
17346;DHT22;8790;53.590;10.002;2022-09-17T02:34:22;12.60;99.90
17346;DHT22;8790;53.590;10.002;2022-09-17T02:36:56;12.60;99.90
17346;DHT22;8790;53.590;10.002;2022-09-17T02:39:29;12.60;99.90
17346;DHT22;8790;53.590;10.002;2022-09-17T02:42:06;12.50;99.90
17346;DHT22;8790;53.590;10.002;2022-09-17T02:44:47;12.50;99.90
17346;DHT22;8790;53.590;10.002;2022-09-17T02:47:33;12.50;99.90
17346;DHT22;8790;53.590;10.002;2022-09-17T02:50:25;12.50;99.90
17346;DHT22;8790;53.590;10.002;2022-09-17T02:53:13;12.50;99.90
17346;DHT22;8790;53.590;10.002;2022-09-17T02:55:54;12.50;99.90
17346;DHT22;8790;53.590;10.002;2022-09-17T02:58:32;12.40;99.90
17346;DHT22;8790;53.590;10.002;2022-09-17T03:01:11;12.50;99.90
17346;DHT22;8790;53.590;10.002;2022-09-17T03:03:46;12.50;99.90
17346;DHT22;8790;53.590;10.002;2022-09-17T03:06:22;12.50;99.90
17346;DHT22;8790;53.590;10.002;2022-09-17T03:08:53;12.50;99.90
17346;DHT22;8790;53.590;10.002;2022-09-17T03:11:26;12.50;99.90
17346;DHT22;8790;53.590;10.002;2022-09-17T03:13:58;12.50;99.90
17346;DHT22;8790;53.590;10.002;2022-09-17T03:16:30;12.50;99.90
17346;DHT22;8790;53.590;10.002;2022-09-17T03:19:02;12.50;99.90
17346;DHT22;8790;53.590;10.002;2022-09-17T03:21:35;12.40;99.90
17346;DHT22;8790;53.590;10.002;2022-09-17T03:24:07;12.50;99.90
17346;DHT22;8790;53.590;10.002;2022-09-17T03:26:41;12.50;99.90
17346;DHT22;8790;53.590;10.002;2022-09-17T03:29:13;12.40;99.90
17346;DHT22;8790;53.590;10.002;2022-09-17T03:31:45;12.50;99.90
17346;DHT22;8790;53.590;10.002;2022-09-17T03:34:17;12.40;99.90
17346;DHT22;8790;53.590;10.002;2022-09-17T03:36:50;12.40;99.90
17346;DHT22;8790;53.590;10.002;2022-09-17T03:39:22;12.50;99.90
17346;DHT22;8790;53.590;10.002;2022-09-17T03:41:54;12.50;99.90
17346;DHT22;8790;53.590;10.002;2022-09-17T03:44:26;12.50;99.90
17346;DHT22;8790;53.590;10.002;2022-09-17T03:46:57;12.40;99.90
17346;DHT22;8790;53.590;10.002;2022-09-17T03:49:29;12.40;99.90
17346;DHT22;8790;53.590;10.002;2022-09-17T03:52:02;12.40;99.90
17346;DHT22;8790;53.590;10.002;2022-09-17T03:54:34;12.40;99.90
17346;DHT22;8790;53.590;10.002;2022-09-17T03:57:06;12.40;99.90
17346;DHT22;8790;53.590;10.002;2022-09-17T03:59:38;12.30;99.90
17346;DHT22;8790;53.590;10.002;2022-09-17T04:02:09;12.30;99.90
17346;DHT22;8790;53.590;10.002;2022-09-17T04:04:41;12.30;99.90
17346;DHT22;8790;53.590;10.002;2022-09-17T04:07:14;12.30;99.90
17346;DHT22;8790;53.590;10.002;2022-09-17T04:09:46;12.30;99.90
17346;DHT22;8790;53.590;10.002;2022-09-17T04:12:18;12.30;99.90
17346;DHT22;8790;53.590;10.002;2022-09-17T04:14:50;12.20;99.90
17346;DHT22;8790;53.590;10.002;2022-09-17T04:17:22;12.20;99.90
17346;DHT22;8790;53.590;10.002;2022-09-17T04:19:54;12.20;99.90
17346;DHT22;8790;53.590;10.002;2022-09-17T04:22:27;12.20;99.90
17346;DHT22;8790;53.590;10.002;2022-09-17T04:24:59;12.20;99.90
17346;DHT22;8790;53.590;10.002;2022-09-17T04:27:31;12.20;99.90
17346;DHT22;8790;53.590;10.002;2022-09-17T04:30:03;12.20;99.90
17346;DHT22;8790;53.590;10.002;2022-09-17T04:32:35;12.30;99.90
17346;DHT22;8790;53.590;10.002;2022-09-17T04:35:07;12.20;99.90
17346;DHT22;8790;53.590;10.002;2022-09-17T04:37:41;12.20;99.90
17346;DHT22;8790;53.590;10.002;2022-09-17T04:40:12;12.20;99.90
17346;DHT22;8790;53.590;10.002;2022-09-17T04:42:44;12.10;99.90
17346;DHT22;8790;53.590;10.002;2022-09-17T04:45:16;12.10;99.90
17346;DHT22;8790;53.590;10.002;2022-09-17T04:47:48;12.10;99.90
17346;DHT22;8790;53.590;10.002;2022-09-17T04:50:20;12.20;99.90
17346;DHT22;8790;53.590;10.002;2022-09-17T04:52:54;12.10;99.90
17346;DHT22;8790;53.590;10.002;2022-09-17T04:55:26;12.10;99.90
17346;DHT22;8790;53.590;10.002;2022-09-17T04:57:57;12.20;99.90
17346;DHT22;8790;53.590;10.002;2022-09-17T05:00:29;12.20;99.90
17346;DHT22;8790;53.590;10.002;2022-09-17T05:03:02;12.10;99.90
17346;DHT22;8790;53.590;10.002;2022-09-17T05:05:34;12.10;99.90
17346;DHT22;8790;53.590;10.002;2022-09-17T05:08:07;12.10;99.90
17346;DHT22;8790;53.590;10.002;2022-09-17T05:10:39;12.10;99.90
17346;DHT22;8790;53.590;10.002;2022-09-17T05:13:11;12.10;99.90
17346;DHT22;8790;53.590;10.002;2022-09-17T05:15:42;12.00;99.90
17346;DHT22;8790;53.590;10.002;2022-09-17T05:18:14;11.90;99.90
17346;DHT22;8790;53.590;10.002;2022-09-17T05:20:46;12.00;99.90
17346;DHT22;8790;53.590;10.002;2022-09-17T05:23:19;12.10;99.90
17346;DHT22;8790;53.590;10.002;2022-09-17T05:25:51;12.00;99.90
17346;DHT22;8790;53.590;10.002;2022-09-17T05:28:23;12.10;99.90
17346;DHT22;8790;53.590;10.002;2022-09-17T05:30:58;12.00;99.90
17346;DHT22;8790;53.590;10.002;2022-09-17T05:33:30;12.10;99.90
17346;DHT22;8790;53.590;10.002;2022-09-17T05:36:02;12.10;99.90
17346;DHT22;8790;53.590;10.002;2022-09-17T05:38:35;12.00;99.90
17346;DHT22;8790;53.590;10.002;2022-09-17T05:41:08;12.00;99.90
17346;DHT22;8790;53.590;10.002;2022-09-17T05:43:41;12.10;99.90
17346;DHT22;8790;53.590;10.002;2022-09-17T05:46:13;12.20;99.90
17346;DHT22;8790;53.590;10.002;2022-09-17T05:48:45;12.20;99.90
17346;DHT22;8790;53.590;10.002;2022-09-17T05:51:17;12.10;99.90
17346;DHT22;8790;53.590;10.002;2022-09-17T05:53:53;12.20;99.90
17346;DHT22;8790;53.590;10.002;2022-09-17T05:56:25;12.00;99.90
17346;DHT22;8790;53.590;10.002;2022-09-17T05:58:57;12.10;99.90
17346;DHT22;8790;53.590;10.002;2022-09-17T06:01:29;12.10;99.90
17346;DHT22;8790;53.590;10.002;2022-09-17T06:04:01;12.10;99.90
17346;DHT22;8790;53.590;10.002;2022-09-17T06:06:34;12.00;99.90
17346;DHT22;8790;53.590;10.002;2022-09-17T06:09:09;12.10;99.90
17346;DHT22;8790;53.590;10.002;2022-09-17T06:11:41;12.10;99.90
17346;DHT22;8790;53.590;10.002;2022-09-17T06:14:12;12.10;99.90
17346;DHT22;8790;53.590;10.002;2022-09-17T06:16:45;12.00;99.90
17346;DHT22;8790;53.590;10.002;2022-09-17T06:19:16;12.00;99.90
17346;DHT22;8790;53.590;10.002;2022-09-17T06:21:48;12.00;99.90
17346;DHT22;8790;53.590;10.002;2022-09-17T06:24:21;12.00;99.90
17346;DHT22;8790;53.590;10.002;2022-09-17T06:26:53;12.00;99.90
17346;DHT22;8790;53.590;10.002;2022-09-17T06:29:25;12.00;99.90
17346;DHT22;8790;53.590;10.002;2022-09-17T06:31:57;12.10;99.90
17346;DHT22;8790;53.590;10.002;2022-09-17T06:34:30;12.00;99.90
17346;DHT22;8790;53.590;10.002;2022-09-17T06:37:02;12.00;99.90
17346;DHT22;8790;53.590;10.002;2022-09-17T06:39:35;12.00;99.90
17346;DHT22;8790;53.590;10.002;2022-09-17T06:42:07;11.90;99.90
17346;DHT22;8790;53.590;10.002;2022-09-17T06:44:39;12.00;99.90
17346;DHT22;8790;53.590;10.002;2022-09-17T06:47:11;12.00;99.90
17346;DHT22;8790;53.590;10.002;2022-09-17T06:49:42;12.00;99.90
17346;DHT22;8790;53.590;10.002;2022-09-17T06:52:14;12.00;99.90
17346;DHT22;8790;53.590;10.002;2022-09-17T06:54:47;12.00;99.90
17346;DHT22;8790;53.590;10.002;2022-09-17T06:57:19;12.10;99.90
17346;DHT22;8790;53.590;10.002;2022-09-17T06:59:51;12.10;99.90
17346;DHT22;8790;53.590;10.002;2022-09-17T07:02:23;12.10;99.90
17346;DHT22;8790;53.590;10.002;2022-09-17T07:04:55;12.10;99.90
17346;DHT22;8790;53.590;10.002;2022-09-17T07:07:27;12.10;99.90
17346;DHT22;8790;53.590;10.002;2022-09-17T07:10:01;12.20;99.90
17346;DHT22;8790;53.590;10.002;2022-09-17T07:12:32;12.30;99.90
17346;DHT22;8790;53.590;10.002;2022-09-17T07:15:05;12.30;99.90
17346;DHT22;8790;53.590;10.002;2022-09-17T07:17:37;12.30;99.90
17346;DHT22;8790;53.590;10.002;2022-09-17T07:20:10;12.40;99.90
17346;DHT22;8790;53.590;10.002;2022-09-17T07:22:42;12.40;99.90
17346;DHT22;8790;53.590;10.002;2022-09-17T07:25:15;12.40;99.90
17346;DHT22;8790;53.590;10.002;2022-09-17T07:27:47;12.50;99.90
17346;DHT22;8790;53.590;10.002;2022-09-17T07:30:19;12.50;99.90
17346;DHT22;8790;53.590;10.002;2022-09-17T07:32:51;12.60;99.90
17346;DHT22;8790;53.590;10.002;2022-09-17T07:35:23;12.60;99.90
17346;DHT22;8790;53.590;10.002;2022-09-17T07:37:55;12.60;99.90
17346;DHT22;8790;53.590;10.002;2022-09-17T07:40:28;12.50;99.90
17346;DHT22;8790;53.590;10.002;2022-09-17T07:43:00;12.50;99.90
17346;DHT22;8790;53.590;10.002;2022-09-17T07:45:32;12.50;99.90
17346;DHT22;8790;53.590;10.002;2022-09-17T07:48:03;12.50;99.90
17346;DHT22;8790;53.590;10.002;2022-09-17T07:50:36;12.40;99.90
17346;DHT22;8790;53.590;10.002;2022-09-17T07:53:08;12.40;99.90
17346;DHT22;8790;53.590;10.002;2022-09-17T07:55:41;12.50;99.90
17346;DHT22;8790;53.590;10.002;2022-09-17T07:58:13;12.40;99.90
17346;DHT22;8790;53.590;10.002;2022-09-17T08:00:45;12.50;99.90
17346;DHT22;8790;53.590;10.002;2022-09-17T08:03:17;12.50;99.90
17346;DHT22;8790;53.590;10.002;2022-09-17T08:05:49;12.50;99.90
17346;DHT22;8790;53.590;10.002;2022-09-17T08:08:20;12.50;99.90
17346;DHT22;8790;53.590;10.002;2022-09-17T08:10:53;12.60;99.90
17346;DHT22;8790;53.590;10.002;2022-09-17T08:13:25;12.60;99.90
17346;DHT22;8790;53.590;10.002;2022-09-17T08:15:58;12.70;99.90
17346;DHT22;8790;53.590;10.002;2022-09-17T08:18:31;12.80;99.90
17346;DHT22;8790;53.590;10.002;2022-09-17T08:21:04;12.80;99.90
17346;DHT22;8790;53.590;10.002;2022-09-17T08:23:38;12.80;99.90
17346;DHT22;8790;53.590;10.002;2022-09-17T08:26:13;12.90;99.90
17346;DHT22;8790;53.590;10.002;2022-09-17T08:28:46;13.00;99.90
17346;DHT22;8790;53.590;10.002;2022-09-17T08:31:19;12.90;99.90
17346;DHT22;8790;53.590;10.002;2022-09-17T08:33:51;13.00;99.90
17346;DHT22;8790;53.590;10.002;2022-09-17T08:36:23;12.90;99.90
17346;DHT22;8790;53.590;10.002;2022-09-17T08:38:55;12.80;99.90
17346;DHT22;8790;53.590;10.002;2022-09-17T08:41:39;12.70;99.90
17346;DHT22;8790;53.590;10.002;2022-09-17T08:44:20;12.80;99.90
17346;DHT22;8790;53.590;10.002;2022-09-17T08:46:58;12.90;99.90
17346;DHT22;8790;53.590;10.002;2022-09-17T08:49:33;13.00;99.90
17346;DHT22;8790;53.590;10.002;2022-09-17T08:52:37;13.00;99.90
17346;DHT22;8790;53.590;10.002;2022-09-17T08:55:21;13.00;99.90
17346;DHT22;8790;53.590;10.002;2022-09-17T08:58:03;13.00;99.90
17346;DHT22;8790;53.590;10.002;2022-09-17T09:00:40;13.00;99.90
17346;DHT22;8790;53.590;10.002;2022-09-17T09:03:24;13.00;99.90
17346;DHT22;8790;53.590;10.002;2022-09-17T09:05:59;13.10;99.90
17346;DHT22;8790;53.590;10.002;2022-09-17T09:08:35;13.00;99.90
17346;DHT22;8790;53.590;10.002;2022-09-17T09:11:13;13.10;99.90
17346;DHT22;8790;53.590;10.002;2022-09-17T09:13:51;13.20;99.90
17346;DHT22;8790;53.590;10.002;2022-09-17T09:16:27;13.20;99.90
17346;DHT22;8790;53.590;10.002;2022-09-17T09:19:09;13.10;99.90
17346;DHT22;8790;53.590;10.002;2022-09-17T09:21:46;13.00;99.90
17346;DHT22;8790;53.590;10.002;2022-09-17T09:24:22;13.00;99.90
17346;DHT22;8790;53.590;10.002;2022-09-17T09:26:58;13.00;99.90
17346;DHT22;8790;53.590;10.002;2022-09-17T09:29:40;13.00;99.90
17346;DHT22;8790;53.590;10.002;2022-09-17T09:32:22;13.10;99.90
17346;DHT22;8790;53.590;10.002;2022-09-17T09:34:56;13.20;99.90
17346;DHT22;8790;53.590;10.002;2022-09-17T09:37:33;13.20;99.90
17346;DHT22;8790;53.590;10.002;2022-09-17T09:40:18;13.20;99.90
17346;DHT22;8790;53.590;10.002;2022-09-17T09:42:54;13.20;99.90
17346;DHT22;8790;53.590;10.002;2022-09-17T09:45:47;13.20;99.90
17346;DHT22;8790;53.590;10.002;2022-09-17T09:48:28;13.30;99.90
17346;DHT22;8790;53.590;10.002;2022-09-17T09:51:10;13.30;99.90
17346;DHT22;8790;53.590;10.002;2022-09-17T09:53:52;13.30;99.90
17346;DHT22;8790;53.590;10.002;2022-09-17T09:56:46;13.40;99.90
17346;DHT22;8790;53.590;10.002;2022-09-17T09:59:19;13.40;99.90
17346;DHT22;8790;53.590;10.002;2022-09-17T10:01:52;13.30;99.90
17346;DHT22;8790;53.590;10.002;2022-09-17T10:04:25;13.20;99.90
17346;DHT22;8790;53.590;10.002;2022-09-17T10:07:00;13.20;99.90
17346;DHT22;8790;53.590;10.002;2022-09-17T10:09:35;13.10;99.90
17346;DHT22;8790;53.590;10.002;2022-09-17T10:12:16;13.20;99.90
17346;DHT22;8790;53.590;10.002;2022-09-17T10:14:48;13.30;99.90
17346;DHT22;8790;53.590;10.002;2022-09-17T10:17:23;13.30;99.90
17346;DHT22;8790;53.590;10.002;2022-09-17T10:20:13;13.20;99.90
17346;DHT22;8790;53.590;10.002;2022-09-17T10:22:46;13.20;99.90
17346;DHT22;8790;53.590;10.002;2022-09-17T10:25:28;13.10;99.90
17346;DHT22;8790;53.590;10.002;2022-09-17T10:28:03;13.10;99.90
17346;DHT22;8790;53.590;10.002;2022-09-17T10:30:36;13.00;99.90
17346;DHT22;8790;53.590;10.002;2022-09-17T10:33:16;13.10;99.90
17346;DHT22;8790;53.590;10.002;2022-09-17T10:35:57;13.10;99.90
17346;DHT22;8790;53.590;10.002;2022-09-17T10:38:33;13.00;99.90
17346;DHT22;8790;53.590;10.002;2022-09-17T10:41:17;13.00;99.90
17346;DHT22;8790;53.590;10.002;2022-09-17T10:43:51;13.00;99.90
17346;DHT22;8790;53.590;10.002;2022-09-17T10:46:26;12.90;99.90
17346;DHT22;8790;53.590;10.002;2022-09-17T10:49:09;12.90;99.90
17346;DHT22;8790;53.590;10.002;2022-09-17T10:51:41;13.10;99.90
17346;DHT22;8790;53.590;10.002;2022-09-17T10:57:17;13.10;99.90
17346;DHT22;8790;53.590;10.002;2022-09-17T10:59:59;13.10;99.90
17346;DHT22;8790;53.590;10.002;2022-09-17T11:05:44;12.90;99.90
17346;DHT22;8790;53.590;10.002;2022-09-17T11:08:23;13.00;99.90
17346;DHT22;8790;53.590;10.002;2022-09-17T11:11:00;12.90;99.90
17346;DHT22;8790;53.590;10.002;2022-09-17T11:13:42;12.90;99.90
17346;DHT22;8790;53.590;10.002;2022-09-17T11:16:30;12.90;99.90
17346;DHT22;8790;53.590;10.002;2022-09-17T11:19:16;12.90;99.90
17346;DHT22;8790;53.590;10.002;2022-09-17T11:21:58;13.10;99.90
17346;DHT22;8790;53.590;10.002;2022-09-17T11:24:58;13.20;99.90
17346;DHT22;8790;53.590;10.002;2022-09-17T11:27:45;13.20;99.90
17346;DHT22;8790;53.590;10.002;2022-09-17T11:30:20;13.10;99.90
17346;DHT22;8790;53.590;10.002;2022-09-17T11:33:26;13.20;99.90
17346;DHT22;8790;53.590;10.002;2022-09-17T11:36:07;13.30;99.90
17346;DHT22;8790;53.590;10.002;2022-09-17T11:38:45;13.30;99.90
17346;DHT22;8790;53.590;10.002;2022-09-17T11:41:21;13.30;99.90
17346;DHT22;8790;53.590;10.002;2022-09-17T11:44:02;13.40;99.90
17346;DHT22;8790;53.590;10.002;2022-09-17T11:46:42;13.30;99.90
17346;DHT22;8790;53.590;10.002;2022-09-17T11:49:21;13.30;99.90
17346;DHT22;8790;53.590;10.002;2022-09-17T11:51:57;13.30;99.90
17346;DHT22;8790;53.590;10.002;2022-09-17T11:54:34;13.30;99.90
17346;DHT22;8790;53.590;10.002;2022-09-17T11:57:12;13.30;99.90
17346;DHT22;8790;53.590;10.002;2022-09-17T11:59:50;13.40;99.90
17346;DHT22;8790;53.590;10.002;2022-09-17T12:02:27;13.30;99.90
17346;DHT22;8790;53.590;10.002;2022-09-17T12:05:04;13.20;99.90
17346;DHT22;8790;53.590;10.002;2022-09-17T12:07:47;13.30;99.90
17346;DHT22;8790;53.590;10.002;2022-09-17T12:10:33;13.30;99.90
17346;DHT22;8790;53.590;10.002;2022-09-17T12:13:21;13.30;99.90
17346;DHT22;8790;53.590;10.002;2022-09-17T12:16:09;13.20;99.90
17346;DHT22;8790;53.590;10.002;2022-09-17T12:18:49;13.30;99.90
17346;DHT22;8790;53.590;10.002;2022-09-17T12:21:24;13.30;99.90
17346;DHT22;8790;53.590;10.002;2022-09-17T12:24:02;13.40;99.90
17346;DHT22;8790;53.590;10.002;2022-09-17T12:26:51;13.40;99.90
17346;DHT22;8790;53.590;10.002;2022-09-17T12:29:35;13.60;99.90
17346;DHT22;8790;53.590;10.002;2022-09-17T12:32:23;13.60;99.90
17346;DHT22;8790;53.590;10.002;2022-09-17T12:35:05;13.40;99.90
17346;DHT22;8790;53.590;10.002;2022-09-17T12:37:50;13.40;99.90
17346;DHT22;8790;53.590;10.002;2022-09-17T12:40:29;13.50;99.90
17346;DHT22;8790;53.590;10.002;2022-09-17T12:43:21;13.50;99.90
17346;DHT22;8790;53.590;10.002;2022-09-17T12:46:12;13.70;99.90
17346;DHT22;8790;53.590;10.002;2022-09-17T12:49:08;13.70;99.90
17346;DHT22;8790;53.590;10.002;2022-09-17T12:51:54;13.80;99.90
17346;DHT22;8790;53.590;10.002;2022-09-17T12:54:52;13.90;99.90
17346;DHT22;8790;53.590;10.002;2022-09-17T12:57:37;13.90;99.90
17346;DHT22;8790;53.590;10.002;2022-09-17T13:00:14;13.90;99.90
17346;DHT22;8790;53.590;10.002;2022-09-17T13:02:52;14.00;99.90
17346;DHT22;8790;53.590;10.002;2022-09-17T13:08:49;14.10;99.90
17346;DHT22;8790;53.590;10.002;2022-09-17T13:11:48;14.10;99.90
17346;DHT22;8790;53.590;10.002;2022-09-17T13:14:27;14.10;99.90
17346;DHT22;8790;53.590;10.002;2022-09-17T13:17:06;14.20;99.90
17346;DHT22;8790;53.590;10.002;2022-09-17T13:19:46;14.20;99.90
17346;DHT22;8790;53.590;10.002;2022-09-17T13:22:26;14.20;99.90
17346;DHT22;8790;53.590;10.002;2022-09-17T13:25:04;14.10;99.90
17346;DHT22;8790;53.590;10.002;2022-09-17T13:27:37;14.00;99.90
17346;DHT22;8790;53.590;10.002;2022-09-17T13:30:10;14.10;99.90
17346;DHT22;8790;53.590;10.002;2022-09-17T13:32:48;14.00;99.90
17346;DHT22;8790;53.590;10.002;2022-09-17T13:35:46;13.80;99.90
17346;DHT22;8790;53.590;10.002;2022-09-17T13:38:20;13.80;99.90
17346;DHT22;8790;53.590;10.002;2022-09-17T13:41:16;13.80;99.90
17346;DHT22;8790;53.590;10.002;2022-09-17T13:43:49;13.90;99.90
17346;DHT22;8790;53.590;10.002;2022-09-17T13:46:25;14.00;99.90
17346;DHT22;8790;53.590;10.002;2022-09-17T13:49:01;14.10;99.90
17346;DHT22;8790;53.590;10.002;2022-09-17T13:51:50;14.20;99.90
17346;DHT22;8790;53.590;10.002;2022-09-17T13:54:34;14.30;99.90
17346;DHT22;8790;53.590;10.002;2022-09-17T13:57:12;14.40;99.90
17346;DHT22;8790;53.590;10.002;2022-09-17T13:59:53;14.40;99.90
17346;DHT22;8790;53.590;10.002;2022-09-17T14:02:29;14.50;99.90
17346;DHT22;8790;53.590;10.002;2022-09-17T14:05:31;14.40;99.90
17346;DHT22;8790;53.590;10.002;2022-09-17T14:08:27;14.40;99.90
17346;DHT22;8790;53.590;10.002;2022-09-17T14:11:02;14.30;99.90
17346;DHT22;8790;53.590;10.002;2022-09-17T14:13:54;14.20;99.90
17346;DHT22;8790;53.590;10.002;2022-09-17T14:16:34;14.10;99.90
17346;DHT22;8790;53.590;10.002;2022-09-17T14:19:30;14.00;99.90
17346;DHT22;8790;53.590;10.002;2022-09-17T14:22:14;13.90;99.90
17346;DHT22;8790;53.590;10.002;2022-09-17T14:24:48;13.90;99.90
17346;DHT22;8790;53.590;10.002;2022-09-17T14:27:49;13.90;99.90
17346;DHT22;8790;53.590;10.002;2022-09-17T14:30:26;13.90;99.90
17346;DHT22;8790;53.590;10.002;2022-09-17T14:33:04;13.90;99.90
17346;DHT22;8790;53.590;10.002;2022-09-17T14:35:39;14.00;99.90
17346;DHT22;8790;53.590;10.002;2022-09-17T14:38:17;14.00;99.90
17346;DHT22;8790;53.590;10.002;2022-09-17T14:40:58;14.10;99.90
17346;DHT22;8790;53.590;10.002;2022-09-17T14:43:39;13.90;99.90
17346;DHT22;8790;53.590;10.002;2022-09-17T14:46:16;13.80;99.90
17346;DHT22;8790;53.590;10.002;2022-09-17T14:48:49;13.60;99.90
17346;DHT22;8790;53.590;10.002;2022-09-17T14:51:24;13.50;99.90
17346;DHT22;8790;53.590;10.002;2022-09-17T14:54:13;13.40;99.90
17346;DHT22;8790;53.590;10.002;2022-09-17T14:56:57;13.40;99.90
17346;DHT22;8790;53.590;10.002;2022-09-17T14:59:42;13.50;99.90
17346;DHT22;8790;53.590;10.002;2022-09-17T15:02:31;13.30;99.90
17346;DHT22;8790;53.590;10.002;2022-09-17T15:05:31;13.40;99.90
17346;DHT22;8790;53.590;10.002;2022-09-17T15:08:11;13.40;99.90
17346;DHT22;8790;53.590;10.002;2022-09-17T15:10:50;13.40;99.90
17346;DHT22;8790;53.590;10.002;2022-09-17T15:13:25;13.40;99.90
17346;DHT22;8790;53.590;10.002;2022-09-17T15:16:00;13.30;99.90
17346;DHT22;8790;53.590;10.002;2022-09-17T15:18:38;13.30;99.90
17346;DHT22;8790;53.590;10.002;2022-09-17T15:21:20;13.30;99.90
17346;DHT22;8790;53.590;10.002;2022-09-17T15:23:58;13.30;99.90
17346;DHT22;8790;53.590;10.002;2022-09-17T15:26:34;13.30;99.90
17346;DHT22;8790;53.590;10.002;2022-09-17T15:29:10;13.30;99.90
17346;DHT22;8790;53.590;10.002;2022-09-17T15:31:42;13.30;99.90
17346;DHT22;8790;53.590;10.002;2022-09-17T15:34:14;13.20;99.90
17346;DHT22;8790;53.590;10.002;2022-09-17T15:37:03;13.30;99.90
17346;DHT22;8790;53.590;10.002;2022-09-17T15:39:39;13.20;99.90
17346;DHT22;8790;53.590;10.002;2022-09-17T15:42:21;13.20;99.90
17346;DHT22;8790;53.590;10.002;2022-09-17T15:45:06;13.20;99.90
17346;DHT22;8790;53.590;10.002;2022-09-17T15:47:52;13.10;99.90
17346;DHT22;8790;53.590;10.002;2022-09-17T15:50:25;13.10;99.90
17346;DHT22;8790;53.590;10.002;2022-09-17T15:53:11;13.10;99.90
17346;DHT22;8790;53.590;10.002;2022-09-17T15:55:45;13.10;99.90
17346;DHT22;8790;53.590;10.002;2022-09-17T15:58:22;13.00;99.90
17346;DHT22;8790;53.590;10.002;2022-09-17T16:07:28;13.10;99.90
17346;DHT22;8790;53.590;10.002;2022-09-17T16:10:00;13.20;99.90
17346;DHT22;8790;53.590;10.002;2022-09-17T16:12:32;13.20;99.90
17346;DHT22;8790;53.590;10.002;2022-09-17T16:15:06;13.30;99.90
17346;DHT22;8790;53.590;10.002;2022-09-17T16:17:43;13.30;99.90
17346;DHT22;8790;53.590;10.002;2022-09-17T16:20:17;13.20;99.90
17346;DHT22;8790;53.590;10.002;2022-09-17T16:22:52;13.10;99.90
17346;DHT22;8790;53.590;10.002;2022-09-17T16:25:26;13.20;99.90
17346;DHT22;8790;53.590;10.002;2022-09-17T16:28:00;13.30;99.90
17346;DHT22;8790;53.590;10.002;2022-09-17T16:30:34;13.20;99.90
17346;DHT22;8790;53.590;10.002;2022-09-17T16:33:09;13.10;99.90
17346;DHT22;8790;53.590;10.002;2022-09-17T16:35:42;13.20;99.90
17346;DHT22;8790;53.590;10.002;2022-09-17T16:38:14;13.20;99.90
17346;DHT22;8790;53.590;10.002;2022-09-17T16:40:45;13.20;99.90
17346;DHT22;8790;53.590;10.002;2022-09-17T16:43:17;13.10;99.90
17346;DHT22;8790;53.590;10.002;2022-09-17T16:45:58;13.20;99.90
17346;DHT22;8790;53.590;10.002;2022-09-17T16:48:31;13.20;99.90
17346;DHT22;8790;53.590;10.002;2022-09-17T16:51:05;13.20;99.90